Details From SVMI - Caracas Simon Bolivar Intl
To MUHG - Frank Pais Intl
Flight Number -
Tags Decoded
Created
Modified
Stats Distance 809 nm / 1,498 km
Max Altitude 0 ft / 0 m
Waypoints 5
Social Downloads 2
Likes 0
Share VATSIM

Download

Looking for another format? Having issues loading an existing format? Contact us
Advertisement - Login to hide

Notes

Decoded

Route

ATONO AVELO PAP UCU MUHG

ID Type Via Altitude Latitude Longitude Leg Dist Tot Dist Heading (true) Name
O ATONO FIX - 0 ft / 0 m 10.99975˚ -67.48369˚ - 0 nm - -
AVELO FIX - 0 ft / 0 m 11.41833˚ -68.01000˚ 39 nm 39 nm 309° / 309° -
PAP VOR - 0 ft / 0 m 18.57653˚ -72.30422˚ 496 nm 536 nm 330° / 329° PORT-AU-PRINCE VOR-DME
UCU VOR - 0 ft / 0 m 19.97778˚ -75.82278˚ 216 nm 753 nm 293° / 292° SANTIAGO DE CUBA VOR-DME
O MUHG APT - 0 ft / 0 m 20.77545˚ -76.32635˚ 55 nm 808 nm 329° / 329° -

Altitude Profile

Advertisement - Login to hide

Weather


0- 5 10 15 20 25 30 35+ Temperature / ° C

Clouds and Precipitation
Forecast for 2017-12-13 06:00 UTC. Updated an hour ago

Ground ~20,000 ft ~40,000 ft Winds

SVMI

Details ICAO SVMI (CCS)
Name Caracas Simon Bolivar Intl
Region Venezuela
Timezone America/Caracas (UTC-4.0)
Stats Elevation 235 ft / 72 m (AMSL)
Location 10.603119° -66.990585°
Runways 2
Magnetic Variation 12.288° W

METAR

SVMI 130400Z 00000KT 9999 FEW016 24/21 Q1011

Decode

TAF

Not found

Departure Runways

ID Width Length Bearing (true) Bearing (mag) Surface Threshold Offset Overrun Length
09 145 ft / 44 m 9,825 ft / 2,995 m 75.92° 88.21° Asphalt 0 ft / 0 m 0 ft / 0 m
10 148 ft / 45 m 11,472 ft / 3,497 m 88.14° 100.43° Asphalt 0 ft / 0 m 200 ft / 61 m
27 145 ft / 44 m 9,825 ft / 2,995 m 255.92° 268.21° Asphalt 0 ft / 0 m 0 ft / 0 m
28 148 ft / 45 m 11,472 ft / 3,497 m 268.15° 280.44° Asphalt 0 ft / 0 m 200 ft / 61 m

MUHG

Details ICAO MUHG (HOG)
Name FRANK PAIS INTL
Region Cuba
Timezone America/Havana (UTC-5.0)
Stats Elevation 361 ft / 110 m (AMSL)
Location 20.785554° -76.315108°
Runways 1
Magnetic Variation 8.244° W

METAR

MUHG 130350Z 31002KT 9000 FEW025 BKN080 21/19 Q1016

Decode

TAF

Not found

Destination Runways

ID Width Length Bearing (true) Bearing (mag) Surface Threshold Offset Overrun Length
05 148 ft / 45 m 10,642 ft / 3,244 m 46.12° 54.36° Asphalt 328 ft / 100 m 290 ft / 88 m
23 148 ft / 45 m 10,642 ft / 3,244 m 226.12° 234.36° Asphalt 0 ft / 0 m 0 ft / 0 m

Approach Navaids

Runway Type Ident Frequency Range Bearing (true) Bearing (mag) Slope Elevation
05 Localiser IHG 111.30 MHz 18 nm / 33 km 46.13° 54.38° - 361 ft / 110 m (AMSL)
05 Glidescope IHG 111.30 MHz 10 nm / 19 km 46.12° 54.36° 3.00° 361 ft / 110 m (AMSL)

Popular Alternatives